createdAt,value
2022-09-10T00:01:20.912Z,37.25
2022-09-10T00:03:51.171Z,35.38
2022-09-10T00:06:19.128Z,35.13
2022-09-10T00:08:47.344Z,33.88
2022-09-10T00:11:15.441Z,34.28
2022-09-10T00:13:43.523Z,34.60
2022-09-10T00:16:13.666Z,32.55
2022-09-10T00:18:42.115Z,32.92
2022-09-10T00:21:12.525Z,35.45
2022-09-10T00:23:40.893Z,31.48
2022-09-10T00:26:21.867Z,36.55
2022-09-10T00:28:50.692Z,35.97
2022-09-10T00:31:19.210Z,36.00
2022-09-10T00:33:46.445Z,34.78
2022-09-10T00:36:23.288Z,36.90
2022-09-10T00:38:52.269Z,37.15
2022-09-10T00:41:22.443Z,37.17
2022-09-10T00:44:02.374Z,41.92
2022-09-10T00:46:32.889Z,37.40
2022-09-10T00:49:03.582Z,43.10
2022-09-10T00:51:34.481Z,39.63
2022-09-10T00:54:03.982Z,40.00
2022-09-10T00:56:32.584Z,39.22
2022-09-10T00:59:01.552Z,40.53
2022-09-10T01:01:29.066Z,39.08
2022-09-10T01:03:56.630Z,41.03
2022-09-10T01:06:24.165Z,40.38
2022-09-10T01:08:51.427Z,41.42
2022-09-10T01:11:46.625Z,42.67
2022-09-10T01:14:36.051Z,41.15
2022-09-10T01:17:25.956Z,47.58
2022-09-10T01:20:40.533Z,74.32
2022-09-10T01:23:32.701Z,69.65
2022-09-10T01:26:06.141Z,68.25
2022-09-10T01:28:56.594Z,61.67
2022-09-10T01:31:31.552Z,53.95
2022-09-10T01:34:16.936Z,50.53
2022-09-10T01:36:50.465Z,46.53
2022-09-10T01:39:20.991Z,45.05
2022-09-10T01:41:50.735Z,44.03
2022-09-10T01:44:41.221Z,44.10
2022-09-10T01:47:17.834Z,39.97
2022-09-10T01:50:03.779Z,37.97
2022-09-10T01:52:56.339Z,47.42
2022-09-10T01:55:45.183Z,37.90
2022-09-10T01:58:22.057Z,40.78
2022-09-10T02:01:15.689Z,40.20
2022-09-10T02:03:46.938Z,39.20
2022-09-10T02:06:19.485Z,44.95
2022-09-10T02:08:52.891Z,41.65
2022-09-10T02:11:21.485Z,40.65
2022-09-10T02:13:52.042Z,43.50
2022-09-10T02:16:37.841Z,40.83
2022-09-10T02:19:06.597Z,35.25
2022-09-10T02:21:34.580Z,41.70
2022-09-10T02:24:10.137Z,41.53
2022-09-10T02:26:40.758Z,42.08
2022-09-10T02:29:10.222Z,43.80
2022-09-10T02:31:40.072Z,43.15
2022-09-10T02:34:07.381Z,45.25
2022-09-10T02:36:35.892Z,43.92
2022-09-10T02:39:05.061Z,40.10
2022-09-10T02:41:34.267Z,41.80
2022-09-10T02:44:03.539Z,38.03
2022-09-10T02:46:31.139Z,45.38
2022-09-10T02:48:59.002Z,43.45
2022-09-10T02:51:26.378Z,46.88
2022-09-10T02:53:55.788Z,42.20
2022-09-10T02:56:23.857Z,42.22
2022-09-10T02:58:51.345Z,41.30
2022-09-10T03:01:21.124Z,41.38
2022-09-10T03:04:00.595Z,39.22
2022-09-10T03:06:29.590Z,42.03
2022-09-10T03:08:58.397Z,38.53
2022-09-10T03:11:27.625Z,44.65
2022-09-10T03:13:55.921Z,39.08
2022-09-10T03:16:24.446Z,39.30
2022-09-10T03:18:52.466Z,40.20
2022-09-10T03:21:23.818Z,38.30
2022-09-10T03:23:52.933Z,38.73
2022-09-10T03:26:25.623Z,40.50
2022-09-10T03:28:53.911Z,39.63
2022-09-10T03:31:23.528Z,46.47
2022-09-10T03:33:51.821Z,41.85
2022-09-10T03:36:21.047Z,37.25
2022-09-10T03:38:50.184Z,38.67
2022-09-10T03:41:17.665Z,42.95
2022-09-10T03:43:45.644Z,39.05
2022-09-10T03:46:13.160Z,41.03
2022-09-10T03:48:43.839Z,37.70
2022-09-10T03:51:11.508Z,38.10
2022-09-10T03:53:40.969Z,39.28
2022-09-10T03:56:13.039Z,41.97
2022-09-10T03:58:41.168Z,39.10
2022-09-10T04:01:10.172Z,41.97
2022-09-10T04:03:42.159Z,44.03
2022-09-10T04:06:10.991Z,44.90
2022-09-10T04:08:39.490Z,40.90
2022-09-10T04:11:09.466Z,39.63
2022-09-10T04:13:36.704Z,43.63
2022-09-10T04:16:04.248Z,42.90
2022-09-10T04:18:34.575Z,41.63
2022-09-10T04:21:03.562Z,45.55
2022-09-10T04:23:30.963Z,45.05
2022-09-10T04:25:58.278Z,41.72
2022-09-10T04:28:25.882Z,48.55
2022-09-10T04:30:54.577Z,41.75
2022-09-10T04:33:25.134Z,47.63
2022-09-10T04:35:52.756Z,39.80
2022-09-10T04:38:21.000Z,46.95
2022-09-10T04:40:49.283Z,46.10
2022-09-10T04:43:17.420Z,40.22
2022-09-10T04:45:45.237Z,46.75
2022-09-10T04:48:12.918Z,58.22
2022-09-10T04:50:54.075Z,43.30
2022-09-10T04:53:28.704Z,42.60
2022-09-10T04:55:57.674Z,46.92
2022-09-10T04:58:24.982Z,51.05
2022-09-10T05:00:52.425Z,51.10
2022-09-10T05:03:20.837Z,48.22
2022-09-10T05:05:48.531Z,54.92
2022-09-10T05:08:15.934Z,51.53
2022-09-10T05:10:50.470Z,45.67
2022-09-10T05:13:18.365Z,39.67
2022-09-10T05:15:46.196Z,64.10
2022-09-10T05:18:16.788Z,41.05
2022-09-10T05:20:45.094Z,49.38
2022-09-10T05:23:12.720Z,36.83
2022-09-10T05:25:43.845Z,42.08
2022-09-10T05:28:11.611Z,39.78
2022-09-10T05:30:38.873Z,44.13
2022-09-10T05:33:06.439Z,48.28
2022-09-10T05:35:34.812Z,46.22
2022-09-10T05:38:02.094Z,51.55
2022-09-10T05:40:32.187Z,41.83
2022-09-10T05:43:00.333Z,44.08
2022-09-10T05:45:27.628Z,44.42
2022-09-10T05:47:57.332Z,39.00
2022-09-10T05:50:24.809Z,34.88
2022-09-10T05:52:53.265Z,43.47
2022-09-10T05:55:20.931Z,39.60
2022-09-10T05:57:49.389Z,33.42
2022-09-10T06:00:19.575Z,34.95
2022-09-10T06:02:59.676Z,34.53
2022-09-10T06:05:34.925Z,33.05
2022-09-10T06:08:08.020Z,34.88
2022-09-10T06:10:39.533Z,35.15
2022-09-10T06:13:07.189Z,36.28
2022-09-10T06:15:36.197Z,33.95
2022-09-10T06:18:04.601Z,36.05
2022-09-10T06:20:32.949Z,34.08
2022-09-10T06:23:00.919Z,38.75
2022-09-10T06:25:28.951Z,33.67
2022-09-10T06:27:57.660Z,32.78
2022-09-10T06:30:26.193Z,36.30
2022-09-10T06:32:53.455Z,32.35
2022-09-10T06:35:21.683Z,36.13
2022-09-10T06:37:50.367Z,31.77
2022-09-10T06:40:18.588Z,28.83
2022-09-10T06:42:45.958Z,33.60
2022-09-10T06:45:13.223Z,28.55
2022-09-10T06:51:02.016Z,31.77
2022-09-10T06:53:35.147Z,30.98
2022-09-10T06:56:05.968Z,33.85
2022-09-10T06:58:35.422Z,32.90
2022-09-10T07:01:23.969Z,31.92
2022-09-10T07:03:56.946Z,34.53
2022-09-10T07:06:26.688Z,26.92
2022-09-10T07:08:59.625Z,33.28
2022-09-10T07:11:32.579Z,31.23
2022-09-10T07:14:02.033Z,33.22
2022-09-10T07:16:32.130Z,32.00
2022-09-10T07:19:00.431Z,33.50
2022-09-10T07:21:40.968Z,33.00
2022-09-10T07:24:15.093Z,24.40
2022-09-10T07:26:51.588Z,30.17
2022-09-10T07:29:18.993Z,31.98
2022-09-10T07:31:48.243Z,33.10
2022-09-10T07:34:20.747Z,29.88
2022-09-10T07:36:47.931Z,30.83
2022-09-10T07:39:15.850Z,33.00
2022-09-10T07:41:43.807Z,31.85
2022-09-10T07:44:14.577Z,27.90
2022-09-10T07:46:45.122Z,31.48
2022-09-10T07:49:13.870Z,29.20
2022-09-10T07:51:44.772Z,27.52
2022-09-10T07:54:17.041Z,27.75
2022-09-10T07:56:49.268Z,28.52
2022-09-10T07:59:16.826Z,27.08
2022-09-10T08:01:50.847Z,26.70
2022-09-10T08:04:20.242Z,27.35
2022-09-10T08:06:47.378Z,33.72
2022-09-10T08:09:15.013Z,28.60
2022-09-10T08:11:50.367Z,43.45
2022-09-10T08:14:20.219Z,29.27
2022-09-10T08:16:51.376Z,31.23
2022-09-10T08:19:19.738Z,35.78
2022-09-10T08:21:47.749Z,31.10
2022-09-10T08:24:20.790Z,43.45
2022-09-10T08:26:50.397Z,36.83
2022-09-10T08:29:19.352Z,30.52
2022-09-10T08:31:47.505Z,32.15
2022-09-10T08:34:29.027Z,30.05
2022-09-10T08:37:04.445Z,30.70
2022-09-10T08:39:34.386Z,27.73
2022-09-10T08:42:09.337Z,31.33
2022-09-10T08:45:15.353Z,25.73
2022-09-10T08:48:24.150Z,26.98
2022-09-10T08:50:59.238Z,27.42
2022-09-10T08:53:45.831Z,30.13
2022-09-10T08:56:21.514Z,29.23
2022-09-10T08:59:00.040Z,28.02
2022-09-10T09:01:40.559Z,28.55
2022-09-10T09:04:19.132Z,26.20
2022-09-10T09:06:56.694Z,25.25
2022-09-10T09:09:24.596Z,25.77
2022-09-10T09:12:07.458Z,25.55
2022-09-10T09:14:49.173Z,25.20
2022-09-10T09:17:35.228Z,27.15
2022-09-10T09:20:14.166Z,26.77
2022-09-10T09:22:50.202Z,24.48
2022-09-10T09:25:23.944Z,23.77
2022-09-10T09:27:55.600Z,23.85
2022-09-10T09:30:37.728Z,23.50
2022-09-10T09:33:19.957Z,21.73
2022-09-10T09:38:26.792Z,20.90
2022-09-10T09:41:00.536Z,20.15
2022-09-10T09:43:34.888Z,19.90
2022-09-10T09:46:02.965Z,15.40
2022-09-10T09:48:40.088Z,23.95
2022-09-10T09:51:13.558Z,23.42
2022-09-10T09:53:45.103Z,24.60
2022-09-10T09:56:51.736Z,25.98
2022-09-10T09:59:30.729Z,24.73
2022-09-10T10:02:10.892Z,27.13
2022-09-10T10:04:42.415Z,27.08
2022-09-10T10:07:11.980Z,25.35
2022-09-10T10:09:44.144Z,25.05
2022-09-10T10:12:22.243Z,23.38
2022-09-10T10:14:50.000Z,23.70
2022-09-10T10:17:46.321Z,23.73
2022-09-10T10:20:16.975Z,22.95
2022-09-10T10:22:46.482Z,22.10
2022-09-10T10:25:33.192Z,22.42
2022-09-10T10:28:00.983Z,20.85
2022-09-10T10:30:31.674Z,20.25
2022-09-10T10:33:03.499Z,22.13
2022-09-10T10:35:44.275Z,19.77
2022-09-10T10:38:31.377Z,19.30
2022-09-10T10:41:09.657Z,19.02
2022-09-10T10:43:49.178Z,18.45
2022-09-10T10:46:34.494Z,16.58
2022-09-10T10:49:33.308Z,17.80
2022-09-10T10:52:12.623Z,17.08
2022-09-10T10:54:51.858Z,19.02
2022-09-10T10:57:33.593Z,17.90
2022-09-10T11:00:08.202Z,18.50
2022-09-10T11:02:36.207Z,20.55
2022-09-10T11:05:18.520Z,18.67
2022-09-10T11:07:47.355Z,18.48
2022-09-10T11:10:19.027Z,18.20
2022-09-10T11:15:48.372Z,16.23
2022-09-10T11:18:27.322Z,16.30
2022-09-10T11:21:34.835Z,17.52
2022-09-10T11:24:06.773Z,17.30
2022-09-10T11:26:45.607Z,19.15
2022-09-10T11:30:04.395Z,19.48
2022-09-10T11:32:40.548Z,21.00
2022-09-10T11:35:10.773Z,23.13
2022-09-10T11:38:08.979Z,22.20
2022-09-10T11:40:46.533Z,22.08
2022-09-10T11:43:22.607Z,24.60
2022-09-10T11:46:00.210Z,24.30
2022-09-10T11:48:32.021Z,23.80
2022-09-10T11:51:10.836Z,24.20
2022-09-10T11:53:38.169Z,25.17
2022-09-10T11:56:26.834Z,26.08
2022-09-10T11:59:09.184Z,23.58
2022-09-10T12:01:56.203Z,23.75
2022-09-10T12:04:26.397Z,22.58
2022-09-10T12:07:02.825Z,22.30
2022-09-10T12:10:14.390Z,19.63
2022-09-10T12:12:50.270Z,22.73
2022-09-10T12:15:23.501Z,20.13
2022-09-10T12:17:58.920Z,19.20
2022-09-10T12:20:32.219Z,18.60
2022-09-10T12:23:00.416Z,19.88
2022-09-10T12:25:34.551Z,20.25
2022-09-10T12:28:07.954Z,18.27
2022-09-10T12:30:38.413Z,18.45
2022-09-10T12:33:11.897Z,17.67
2022-09-10T12:35:47.933Z,17.25
2022-09-10T12:38:46.168Z,18.65
2022-09-10T12:41:36.177Z,19.48
2022-09-10T12:44:36.139Z,18.98
2022-09-10T12:47:15.216Z,20.85
2022-09-10T12:49:58.297Z,22.23
2022-09-10T12:52:52.961Z,22.13
2022-09-10T12:55:38.977Z,21.42
2022-09-10T12:58:17.210Z,21.40
2022-09-10T13:00:56.433Z,21.40
2022-09-10T13:03:29.146Z,23.10
2022-09-10T13:05:59.660Z,21.23
2022-09-10T13:08:33.765Z,21.58
2022-09-10T13:11:03.007Z,21.23
2022-09-10T13:13:33.650Z,20.05
2022-09-10T13:16:02.717Z,21.38
2022-09-10T13:18:35.957Z,20.55
2022-09-10T13:21:24.838Z,20.08
2022-09-10T13:23:56.469Z,19.92
2022-09-10T13:26:34.114Z,19.48
2022-09-10T13:29:26.043Z,19.90
2022-09-10T13:32:08.310Z,20.70
2022-09-10T13:35:06.309Z,19.52
2022-09-10T13:37:41.521Z,20.75
2022-09-10T13:40:27.819Z,19.33
2022-09-10T13:42:54.944Z,20.75
2022-09-10T13:45:41.808Z,21.15
2022-09-10T13:48:17.555Z,20.67
2022-09-10T13:51:15.384Z,21.85
2022-09-10T13:53:45.566Z,20.88
2022-09-10T13:56:26.775Z,20.27
2022-09-10T13:59:00.980Z,20.83
2022-09-10T14:01:59.536Z,20.98
2022-09-10T14:04:31.992Z,20.10
2022-09-10T14:07:23.603Z,21.30
2022-09-10T14:09:56.840Z,20.42
2022-09-10T14:12:28.870Z,20.80
2022-09-10T14:15:00.032Z,19.52
2022-09-10T14:17:35.196Z,18.88
2022-09-10T14:20:12.919Z,20.35
2022-09-10T14:22:40.965Z,18.85
2022-09-10T14:25:29.983Z,17.27
2022-09-10T14:28:27.593Z,19.00
2022-09-10T14:31:27.093Z,17.92
2022-09-10T14:33:55.970Z,17.73
2022-09-10T14:36:31.121Z,16.63
2022-09-10T14:39:03.621Z,18.73
2022-09-10T14:41:33.810Z,19.00
2022-09-10T14:44:29.802Z,19.50
2022-09-10T14:47:14.880Z,18.40
2022-09-10T14:49:44.620Z,17.58
2022-09-10T14:52:11.898Z,18.60
2022-09-10T14:54:39.344Z,16.98
2022-09-10T14:57:13.970Z,18.10
2022-09-10T14:59:43.801Z,17.83
2022-09-10T15:02:23.247Z,18.00
2022-09-10T15:04:50.917Z,17.95
2022-09-10T15:07:18.368Z,19.20
2022-09-10T15:09:46.881Z,20.02
2022-09-10T15:12:31.796Z,18.48
2022-09-10T15:14:59.380Z,18.98
2022-09-10T15:17:27.136Z,19.58
2022-09-10T15:19:55.358Z,18.70
2022-09-10T15:22:27.970Z,19.75
2022-09-10T15:25:09.633Z,18.33
2022-09-10T15:27:37.721Z,20.17
2022-09-10T15:30:05.847Z,18.40
2022-09-10T15:32:33.108Z,18.83
2022-09-10T15:35:01.248Z,18.75
2022-09-10T15:37:28.427Z,19.58
2022-09-10T15:39:58.051Z,20.10
2022-09-10T15:42:25.581Z,18.48
2022-09-10T15:44:52.787Z,19.17
2022-09-10T15:47:19.922Z,20.08
2022-09-10T15:49:47.281Z,20.20
2022-09-10T15:52:14.398Z,20.05
2022-09-10T15:54:43.196Z,20.38
2022-09-10T15:57:10.652Z,20.00
2022-09-10T15:59:37.868Z,21.23
2022-09-10T16:02:06.302Z,18.25
2022-09-10T16:04:36.179Z,19.30
2022-09-10T16:07:04.104Z,19.90
2022-09-10T16:09:31.290Z,19.58
2022-09-10T16:11:58.899Z,19.08
2022-09-10T16:14:26.029Z,19.60
2022-09-10T16:16:53.890Z,21.63
2022-09-10T16:19:21.277Z,21.35
2022-09-10T16:21:48.513Z,22.23
2022-09-10T16:24:15.707Z,23.25
2022-09-10T16:26:43.908Z,21.83
2022-09-10T16:29:16.683Z,19.83
2022-09-10T16:31:47.275Z,19.10
2022-09-10T16:34:18.477Z,19.75
2022-09-10T16:36:48.980Z,20.83
2022-09-10T16:39:16.488Z,19.83
2022-09-10T16:41:48.595Z,20.48
2022-09-10T16:44:17.667Z,22.20
2022-09-10T16:46:46.326Z,20.35
2022-09-10T16:49:15.193Z,19.40
2022-09-10T16:51:43.833Z,19.80
2022-09-10T16:54:11.922Z,21.88
2022-09-10T16:56:42.181Z,21.63
2022-09-10T16:59:16.075Z,20.40
2022-09-10T17:01:45.153Z,19.33
2022-09-10T17:04:21.359Z,19.90
2022-09-10T17:06:50.877Z,21.60
2022-09-10T17:09:18.327Z,21.65
2022-09-10T17:11:45.518Z,20.35
2022-09-10T17:14:12.765Z,21.17
2022-09-10T17:16:42.212Z,21.08
2022-09-10T17:19:18.693Z,20.05
2022-09-10T17:21:51.342Z,19.70
2022-09-10T17:24:22.843Z,23.15
2022-09-10T17:29:20.682Z,21.20
2022-09-10T17:31:48.179Z,23.05
2022-09-10T17:34:16.849Z,23.38
2022-09-10T17:36:46.207Z,24.25
2022-09-10T17:39:14.683Z,22.58
2022-09-10T17:41:43.107Z,24.90
2022-09-10T17:44:11.508Z,26.63
2022-09-10T17:46:38.759Z,25.55
2022-09-10T17:49:06.573Z,27.13
2022-09-10T17:51:34.827Z,25.60
2022-09-10T17:54:05.085Z,24.67
2022-09-10T17:56:32.440Z,25.85
2022-09-10T17:59:01.811Z,26.40
2022-09-10T18:01:31.857Z,25.90
2022-09-10T18:03:59.366Z,25.17
2022-09-10T18:06:29.122Z,27.88
2022-09-10T18:09:00.793Z,29.27
2022-09-10T18:13:58.139Z,27.77
2022-09-10T18:16:28.413Z,30.00
2022-09-10T18:19:16.179Z,29.55
2022-09-10T18:21:46.408Z,30.05
2022-09-10T18:24:15.109Z,30.10
2022-09-10T18:26:45.083Z,30.52
2022-09-10T18:29:32.622Z,33.30
2022-09-10T18:32:03.292Z,33.05
2022-09-10T18:34:31.135Z,31.60
2022-09-10T18:37:00.650Z,31.15
2022-09-10T18:39:30.959Z,28.25
2022-09-10T18:42:01.011Z,26.55
2022-09-10T18:44:33.209Z,26.67
2022-09-10T18:47:01.019Z,27.75
2022-09-10T18:49:28.509Z,28.65
2022-09-10T18:51:56.571Z,27.05
2022-09-10T18:54:25.051Z,26.35
2022-09-10T18:56:52.860Z,25.08
2022-09-10T18:59:23.170Z,24.85
2022-09-10T19:01:53.269Z,25.20
2022-09-10T19:04:23.903Z,24.98
2022-09-10T19:06:51.699Z,24.20
2022-09-10T19:09:24.981Z,26.80
2022-09-10T19:11:54.073Z,26.20
2022-09-10T19:14:27.506Z,23.92
2022-09-10T19:16:56.588Z,26.55
2022-09-10T19:19:26.478Z,27.00
2022-09-10T19:21:56.289Z,28.88
2022-09-10T19:24:44.088Z,28.95
2022-09-10T19:27:13.978Z,29.00
2022-09-10T19:29:42.328Z,30.05
2022-09-10T19:32:11.349Z,30.48
2022-09-10T19:34:39.111Z,30.20
2022-09-10T19:37:07.307Z,32.20
2022-09-10T19:39:34.554Z,31.50
2022-09-10T19:42:01.840Z,32.15
2022-09-10T19:44:29.211Z,30.50
2022-09-10T19:46:56.380Z,33.92
2022-09-10T19:49:23.615Z,31.23
2022-09-10T19:51:51.006Z,32.17
2022-09-10T19:54:18.387Z,32.50
2022-09-10T19:56:46.393Z,37.78
2022-09-10T19:59:14.627Z,40.05
2022-09-10T20:01:43.793Z,41.05
2022-09-10T20:04:12.150Z,33.92
2022-09-10T20:06:39.746Z,36.22
2022-09-10T20:09:08.720Z,34.90
2022-09-10T20:11:36.284Z,37.92
2022-09-10T20:14:08.070Z,38.42
2022-09-10T20:16:37.690Z,41.78
2022-09-10T20:19:06.538Z,36.00
2022-09-10T20:21:34.985Z,38.95
2022-09-10T20:24:02.122Z,38.05
2022-09-10T20:26:35.045Z,37.88
2022-09-10T20:29:05.330Z,36.40
2022-09-10T20:31:35.587Z,39.28
2022-09-10T20:34:05.354Z,36.40
2022-09-10T20:36:35.038Z,38.25
2022-09-10T20:39:03.012Z,38.38
2022-09-10T20:41:30.636Z,36.85
2022-09-10T20:43:59.858Z,36.08
2022-09-10T20:46:29.547Z,34.97
2022-09-10T20:49:03.204Z,33.72
2022-09-10T20:51:36.008Z,36.15
2022-09-10T20:54:04.534Z,34.10
2022-09-10T20:56:32.671Z,34.65
2022-09-10T20:59:01.556Z,31.92
2022-09-10T21:01:31.227Z,35.35
2022-09-10T21:04:00.574Z,36.53
2022-09-10T21:06:30.175Z,36.95
2022-09-10T21:08:58.178Z,32.92
2022-09-10T21:11:27.841Z,32.30
2022-09-10T21:13:57.387Z,35.88
2022-09-10T21:16:29.862Z,35.05
2022-09-10T21:19:09.604Z,37.38
2022-09-10T21:21:39.437Z,36.53
2022-09-10T21:24:10.918Z,33.20
2022-09-10T21:26:39.994Z,36.60
2022-09-10T21:29:11.781Z,35.20
2022-09-10T21:31:39.234Z,34.92
2022-09-10T21:34:06.791Z,37.20
2022-09-10T21:36:36.066Z,35.85
2022-09-10T21:39:06.786Z,35.08
2022-09-10T21:41:39.970Z,27.77
2022-09-10T21:44:12.273Z,36.10
2022-09-10T21:46:40.569Z,33.67
2022-09-10T21:49:08.208Z,31.02
2022-09-10T21:51:35.647Z,33.70
2022-09-10T21:54:04.460Z,30.98
2022-09-10T21:56:32.253Z,31.92
2022-09-10T21:59:01.189Z,32.60
2022-09-10T22:01:30.557Z,31.90
2022-09-10T22:04:00.793Z,37.13
2022-09-10T22:06:33.444Z,31.80
2022-09-10T22:09:12.525Z,25.50
2022-09-10T22:11:46.887Z,27.65
2022-09-10T22:14:19.213Z,28.00
2022-09-10T22:16:46.516Z,26.70
2022-09-10T22:19:19.192Z,28.38
2022-09-10T22:21:47.221Z,29.25
2022-09-10T22:24:17.356Z,27.35
2022-09-10T22:26:45.444Z,26.42
2022-09-10T22:29:16.185Z,28.00
2022-09-10T22:31:43.352Z,28.25
2022-09-10T22:34:13.636Z,27.40
2022-09-10T22:36:42.559Z,28.42
2022-09-10T22:39:15.499Z,27.52
2022-09-10T22:41:43.549Z,27.33
2022-09-10T22:44:11.037Z,27.80
2022-09-10T22:46:38.896Z,29.73
2022-09-10T22:49:08.100Z,28.02
2022-09-10T22:51:38.247Z,29.30
2022-09-10T22:54:06.409Z,30.45
2022-09-10T22:56:37.485Z,30.50
2022-09-10T22:59:05.879Z,28.83
2022-09-10T23:01:38.008Z,24.70
2022-09-10T23:04:07.215Z,27.02
2022-09-10T23:06:36.776Z,28.13
2022-09-10T23:09:07.038Z,26.52
2022-09-10T23:11:36.319Z,25.20
2022-09-10T23:14:09.261Z,26.60
2022-09-10T23:16:38.946Z,23.35
2022-09-10T23:19:17.585Z,24.05
2022-09-10T23:21:47.521Z,24.48
2022-09-10T23:24:17.266Z,23.58
2022-09-10T23:26:45.081Z,23.77
2022-09-10T23:29:13.171Z,22.45
2022-09-10T23:31:41.048Z,23.30
2022-09-10T23:34:11.783Z,23.30
2022-09-10T23:36:41.563Z,22.95
2022-09-10T23:39:13.157Z,23.90
2022-09-10T23:44:09.686Z,22.95
2022-09-10T23:46:37.111Z,24.13
2022-09-10T23:49:05.403Z,23.45
2022-09-10T23:51:32.561Z,23.52
2022-09-10T23:53:59.879Z,23.80
2022-09-10T23:56:28.546Z,24.95
2022-09-10T23:58:59.319Z,25.73
